sensor_id;sensor_type;location;lat;lon;timestamp;P1;durP1;ratioP1;P2;durP2;ratioP2
27576;SDS011;15011;53.380;10.034;2023-08-08T00:02:21;4.57;;;1.50;;
27576;SDS011;15011;53.380;10.034;2023-08-08T00:07:22;3.57;;;1.40;;
27576;SDS011;15011;53.380;10.034;2023-08-08T00:12:23;2.83;;;1.40;;
27576;SDS011;15011;53.380;10.034;2023-08-08T00:17:23;3.20;;;1.30;;
27576;SDS011;15011;53.380;10.034;2023-08-08T00:22:24;5.03;;;1.88;;
27576;SDS011;15011;53.380;10.034;2023-08-08T00:27:24;4.13;;;1.60;;
27576;SDS011;15011;53.380;10.034;2023-08-08T00:32:25;2.00;;;1.30;;
27576;SDS011;15011;53.380;10.034;2023-08-08T00:37:25;3.60;;;1.60;;
27576;SDS011;15011;53.380;10.034;2023-08-08T00:42:26;3.67;;;1.10;;
27576;SDS011;15011;53.380;10.034;2023-08-08T00:47:26;3.13;;;1.40;;
27576;SDS011;15011;53.380;10.034;2023-08-08T00:52:28;5.90;;;2.72;;
27576;SDS011;15011;53.380;10.034;2023-08-08T00:57:28;3.55;;;1.40;;
27576;SDS011;15011;53.380;10.034;2023-08-08T01:02:29;3.53;;;1.27;;
27576;SDS011;15011;53.380;10.034;2023-08-08T01:07:41;3.60;;;1.17;;
27576;SDS011;15011;53.380;10.034;2023-08-08T01:12:49;4.22;;;1.48;;
27576;SDS011;15011;53.380;10.034;2023-08-08T01:18:04;3.00;;;1.27;;
27576;SDS011;15011;53.380;10.034;2023-08-08T01:28:09;2.10;;;1.45;;
27576;SDS011;15011;53.380;10.034;2023-08-08T01:33:09;3.47;;;1.40;;
27576;SDS011;15011;53.380;10.034;2023-08-08T01:38:11;2.63;;;1.40;;
27576;SDS011;15011;53.380;10.034;2023-08-08T01:43:14;3.10;;;1.73;;
27576;SDS011;15011;53.380;10.034;2023-08-08T01:48:15;2.97;;;1.10;;
27576;SDS011;15011;53.380;10.034;2023-08-08T01:53:15;3.28;;;1.40;;
27576;SDS011;15011;53.380;10.034;2023-08-08T01:58:16;3.47;;;1.40;;
27576;SDS011;15011;53.380;10.034;2023-08-08T02:03:17;2.97;;;1.60;;
27576;SDS011;15011;53.380;10.034;2023-08-08T02:08:17;2.22;;;1.23;;
27576;SDS011;15011;53.380;10.034;2023-08-08T02:13:19;2.65;;;1.20;;
27576;SDS011;15011;53.380;10.034;2023-08-08T02:18:19;2.80;;;1.07;;
27576;SDS011;15011;53.380;10.034;2023-08-08T02:23:20;2.83;;;1.38;;
27576;SDS011;15011;53.380;10.034;2023-08-08T02:28:20;2.43;;;1.23;;
27576;SDS011;15011;53.380;10.034;2023-08-08T02:33:21;5.53;;;1.52;;
27576;SDS011;15011;53.380;10.034;2023-08-08T02:38:21;3.15;;;1.30;;
27576;SDS011;15011;53.380;10.034;2023-08-08T02:43:22;2.20;;;1.20;;
27576;SDS011;15011;53.380;10.034;2023-08-08T02:48:23;6.40;;;1.95;;
27576;SDS011;15011;53.380;10.034;2023-08-08T02:53:23;5.30;;;2.10;;
27576;SDS011;15011;53.380;10.034;2023-08-08T02:58:24;2.50;;;1.70;;
27576;SDS011;15011;53.380;10.034;2023-08-08T03:03:24;4.35;;;1.23;;
27576;SDS011;15011;53.380;10.034;2023-08-08T03:08:25;3.53;;;1.52;;
27576;SDS011;15011;53.380;10.034;2023-08-08T03:13:27;4.60;;;1.88;;
27576;SDS011;15011;53.380;10.034;2023-08-08T03:18:28;2.53;;;1.48;;
27576;SDS011;15011;53.380;10.034;2023-08-08T03:23:29;4.20;;;1.80;;
27576;SDS011;15011;53.380;10.034;2023-08-08T03:28:29;2.30;;;1.25;;
27576;SDS011;15011;53.380;10.034;2023-08-08T03:33:31;5.28;;;1.70;;
27576;SDS011;15011;53.380;10.034;2023-08-08T03:38:31;1.92;;;1.40;;
27576;SDS011;15011;53.380;10.034;2023-08-08T03:43:32;3.55;;;1.50;;
27576;SDS011;15011;53.380;10.034;2023-08-08T03:48:33;7.35;;;2.30;;
27576;SDS011;15011;53.380;10.034;2023-08-08T03:53:33;4.73;;;1.60;;
27576;SDS011;15011;53.380;10.034;2023-08-08T03:58:34;4.90;;;1.80;;
27576;SDS011;15011;53.380;10.034;2023-08-08T04:03:35;5.55;;;1.50;;
27576;SDS011;15011;53.380;10.034;2023-08-08T04:08:37;1.77;;;1.23;;
27576;SDS011;15011;53.380;10.034;2023-08-08T04:13:38;2.30;;;1.17;;
27576;SDS011;15011;53.380;10.034;2023-08-08T04:18:38;2.78;;;1.30;;
27576;SDS011;15011;53.380;10.034;2023-08-08T04:23:40;3.60;;;1.45;;
27576;SDS011;15011;53.380;10.034;2023-08-08T04:28:40;2.90;;;1.60;;
27576;SDS011;15011;53.380;10.034;2023-08-08T04:33:41;2.70;;;1.25;;
27576;SDS011;15011;53.380;10.034;2023-08-08T04:38:42;5.28;;;1.52;;
27576;SDS011;15011;53.380;10.034;2023-08-08T04:43:43;3.87;;;1.30;;
27576;SDS011;15011;53.380;10.034;2023-08-08T04:48:44;3.08;;;1.40;;
27576;SDS011;15011;53.380;10.034;2023-08-08T04:53:45;5.30;;;2.22;;
27576;SDS011;15011;53.380;10.034;2023-08-08T04:58:47;3.03;;;1.45;;
27576;SDS011;15011;53.380;10.034;2023-08-08T05:03:48;1.60;;;1.25;;
27576;SDS011;15011;53.380;10.034;2023-08-08T05:08:51;1.60;;;1.20;;
27576;SDS011;15011;53.380;10.034;2023-08-08T05:13:52;1.45;;;1.20;;
27576;SDS011;15011;53.380;10.034;2023-08-08T05:18:52;2.80;;;0.80;;
27576;SDS011;15011;53.380;10.034;2023-08-08T05:23:53;0.73;;;0.73;;
27576;SDS011;15011;53.380;10.034;2023-08-08T05:28:54;1.70;;;0.93;;
27576;SDS011;15011;53.380;10.034;2023-08-08T05:33:55;1.50;;;0.90;;
27576;SDS011;15011;53.380;10.034;2023-08-08T05:38:55;1.35;;;0.77;;
27576;SDS011;15011;53.380;10.034;2023-08-08T05:43:56;2.00;;;1.10;;
27576;SDS011;15011;53.380;10.034;2023-08-08T05:48:57;2.28;;;1.30;;
27576;SDS011;15011;53.380;10.034;2023-08-08T05:53:57;2.38;;;1.35;;
27576;SDS011;15011;53.380;10.034;2023-08-08T05:58:58;1.60;;;1.40;;
27576;SDS011;15011;53.380;10.034;2023-08-08T06:03:59;3.13;;;1.70;;
27576;SDS011;15011;53.380;10.034;2023-08-08T06:09:01;3.38;;;2.03;;
27576;SDS011;15011;53.380;10.034;2023-08-08T06:14:01;1.67;;;1.27;;
27576;SDS011;15011;53.380;10.034;2023-08-08T06:19:03;2.10;;;1.80;;
27576;SDS011;15011;53.380;10.034;2023-08-08T06:24:05;3.03;;;2.10;;
27576;SDS011;15011;53.380;10.034;2023-08-08T06:29:18;1.88;;;1.67;;
27576;SDS011;15011;53.380;10.034;2023-08-08T06:34:29;2.13;;;1.90;;
27576;SDS011;15011;53.380;10.034;2023-08-08T06:39:32;2.92;;;1.60;;
27576;SDS011;15011;53.380;10.034;2023-08-08T06:44:40;4.38;;;1.42;;
27576;SDS011;15011;53.380;10.034;2023-08-08T06:49:43;3.15;;;1.20;;
27576;SDS011;15011;53.380;10.034;2023-08-08T06:54:44;3.00;;;1.33;;
27576;SDS011;15011;53.380;10.034;2023-08-08T07:00:04;2.70;;;1.23;;
27576;SDS011;15011;53.380;10.034;2023-08-08T07:05:08;3.20;;;1.23;;
27576;SDS011;15011;53.380;10.034;2023-08-08T07:10:11;3.08;;;1.50;;
27576;SDS011;15011;53.380;10.034;2023-08-08T07:15:20;1.40;;;1.00;;
27576;SDS011;15011;53.380;10.034;2023-08-08T07:20:23;1.85;;;1.10;;
27576;SDS011;15011;53.380;10.034;2023-08-08T07:25:32;2.33;;;1.65;;
27576;SDS011;15011;53.380;10.034;2023-08-08T07:30:33;3.80;;;1.40;;
27576;SDS011;15011;53.380;10.034;2023-08-08T07:35:35;1.55;;;1.00;;
27576;SDS011;15011;53.380;10.034;2023-08-08T07:40:36;0.80;;;0.80;;
27576;SDS011;15011;53.380;10.034;2023-08-08T07:45:37;1.48;;;1.10;;
27576;SDS011;15011;53.380;10.034;2023-08-08T07:50:38;1.73;;;0.88;;
27576;SDS011;15011;53.380;10.034;2023-08-08T07:55:46;3.00;;;1.00;;
27576;SDS011;15011;53.380;10.034;2023-08-08T08:00:47;2.55;;;1.17;;
27576;SDS011;15011;53.380;10.034;2023-08-08T08:05:48;2.47;;;1.17;;
27576;SDS011;15011;53.380;10.034;2023-08-08T08:10:50;1.48;;;1.00;;
27576;SDS011;15011;53.380;10.034;2023-08-08T08:15:55;5.05;;;1.60;;
27576;SDS011;15011;53.380;10.034;2023-08-08T08:25:57;4.72;;;1.35;;
27576;SDS011;15011;53.380;10.034;2023-08-08T08:31:03;5.13;;;1.02;;
27576;SDS011;15011;53.380;10.034;2023-08-08T08:36:05;1.50;;;1.08;;
27576;SDS011;15011;53.380;10.034;2023-08-08T08:41:07;1.70;;;1.00;;
27576;SDS011;15011;53.380;10.034;2023-08-08T08:46:09;1.45;;;0.90;;
27576;SDS011;15011;53.380;10.034;2023-08-08T08:51:12;1.38;;;0.57;;
27576;SDS011;15011;53.380;10.034;2023-08-08T08:56:15;0.40;;;0.40;;
27576;SDS011;15011;53.380;10.034;2023-08-08T09:01:19;1.73;;;0.50;;
27576;SDS011;15011;53.380;10.034;2023-08-08T09:06:20;0.73;;;0.50;;
27576;SDS011;15011;53.380;10.034;2023-08-08T09:11:22;1.33;;;0.60;;
27576;SDS011;15011;53.380;10.034;2023-08-08T09:16:25;1.48;;;0.57;;
27576;SDS011;15011;53.380;10.034;2023-08-08T09:21:27;1.33;;;0.47;;
27576;SDS011;15011;53.380;10.034;2023-08-08T09:26:29;0.70;;;0.40;;
27576;SDS011;15011;53.380;10.034;2023-08-08T09:31:33;1.52;;;0.50;;
27576;SDS011;15011;53.380;10.034;2023-08-08T09:36:36;1.85;;;0.60;;
27576;SDS011;15011;53.380;10.034;2023-08-08T09:41:37;1.20;;;0.60;;
27576;SDS011;15011;53.380;10.034;2023-08-08T09:46:39;0.93;;;0.52;;
27576;SDS011;15011;53.380;10.034;2023-08-08T09:51:41;3.67;;;0.82;;
27576;SDS011;15011;53.380;10.034;2023-08-08T09:56:42;1.63;;;0.60;;
27576;SDS011;15011;53.380;10.034;2023-08-08T10:01:43;1.33;;;0.50;;
27576;SDS011;15011;53.380;10.034;2023-08-08T10:11:44;1.23;;;0.70;;
27576;SDS011;15011;53.380;10.034;2023-08-08T10:21:47;1.90;;;0.80;;
27576;SDS011;15011;53.380;10.034;2023-08-08T10:26:58;1.85;;;0.95;;
27576;SDS011;15011;53.380;10.034;2023-08-08T10:32:05;1.55;;;0.85;;
27576;SDS011;15011;53.380;10.034;2023-08-08T10:37:11;2.45;;;0.70;;
27576;SDS011;15011;53.380;10.034;2023-08-08T10:42:17;0.88;;;0.50;;
27576;SDS011;15011;53.380;10.034;2023-08-08T10:47:45;1.40;;;0.60;;
27576;SDS011;15011;53.380;10.034;2023-08-08T10:52:55;0.88;;;0.80;;
27576;SDS011;15011;53.380;10.034;2023-08-08T11:03:12;0.73;;;0.57;;
27576;SDS011;15011;53.380;10.034;2023-08-08T11:08:13;1.42;;;0.50;;
27576;SDS011;15011;53.380;10.034;2023-08-08T11:13:15;0.45;;;0.45;;
27576;SDS011;15011;53.380;10.034;2023-08-08T11:18:16;1.47;;;0.90;;
27576;SDS011;15011;53.380;10.034;2023-08-08T11:23:18;0.50;;;0.40;;
27576;SDS011;15011;53.380;10.034;2023-08-08T11:28:24;0.60;;;0.40;;
27576;SDS011;15011;53.380;10.034;2023-08-08T11:33:28;1.90;;;0.40;;
27576;SDS011;15011;53.380;10.034;2023-08-08T11:38:29;1.17;;;0.45;;
27576;SDS011;15011;53.380;10.034;2023-08-08T11:43:30;0.77;;;0.40;;
27576;SDS011;15011;53.380;10.034;2023-08-08T11:48:32;2.15;;;0.40;;
27576;SDS011;15011;53.380;10.034;2023-08-08T11:53:34;1.85;;;0.60;;
27576;SDS011;15011;53.380;10.034;2023-08-08T11:58:36;2.95;;;0.70;;
27576;SDS011;15011;53.380;10.034;2023-08-08T12:03:36;8.93;;;1.00;;
27576;SDS011;15011;53.380;10.034;2023-08-08T12:08:42;2.47;;;0.60;;
27576;SDS011;15011;53.380;10.034;2023-08-08T12:13:45;2.97;;;0.70;;
27576;SDS011;15011;53.380;10.034;2023-08-08T12:18:48;1.45;;;0.60;;
27576;SDS011;15011;53.380;10.034;2023-08-08T12:23:50;2.05;;;0.90;;
27576;SDS011;15011;53.380;10.034;2023-08-08T12:33:54;1.83;;;0.77;;
27576;SDS011;15011;53.380;10.034;2023-08-08T12:38:55;3.58;;;0.80;;
27576;SDS011;15011;53.380;10.034;2023-08-08T12:48:57;1.73;;;0.70;;
27576;SDS011;15011;53.380;10.034;2023-08-08T12:54:00;1.77;;;0.90;;
27576;SDS011;15011;53.380;10.034;2023-08-08T12:59:01;1.15;;;0.63;;
27576;SDS011;15011;53.380;10.034;2023-08-08T13:04:03;4.18;;;0.85;;
27576;SDS011;15011;53.380;10.034;2023-08-08T13:09:05;2.13;;;0.85;;
27576;SDS011;15011;53.380;10.034;2023-08-08T13:14:08;3.55;;;0.80;;
27576;SDS011;15011;53.380;10.034;2023-08-08T13:19:10;1.98;;;0.80;;
27576;SDS011;15011;53.380;10.034;2023-08-08T13:24:13;1.35;;;0.68;;
27576;SDS011;15011;53.380;10.034;2023-08-08T13:29:15;1.35;;;0.43;;
27576;SDS011;15011;53.380;10.034;2023-08-08T13:34:17;2.28;;;0.80;;
27576;SDS011;15011;53.380;10.034;2023-08-08T13:39:18;3.33;;;0.80;;
27576;SDS011;15011;53.380;10.034;2023-08-08T13:44:20;2.03;;;0.90;;
27576;SDS011;15011;53.380;10.034;2023-08-08T13:49:21;2.38;;;0.40;;
27576;SDS011;15011;53.380;10.034;2023-08-08T13:54:27;0.60;;;0.60;;
27576;SDS011;15011;53.380;10.034;2023-08-08T13:59:30;8.15;;;0.70;;
27576;SDS011;15011;53.380;10.034;2023-08-08T14:04:31;2.95;;;0.47;;
27576;SDS011;15011;53.380;10.034;2023-08-08T14:09:32;1.55;;;0.77;;
27576;SDS011;15011;53.380;10.034;2023-08-08T14:14:33;3.35;;;0.65;;
27576;SDS011;15011;53.380;10.034;2023-08-08T14:19:46;3.08;;;0.73;;
27576;SDS011;15011;53.380;10.034;2023-08-08T14:24:47;0.68;;;0.50;;
27576;SDS011;15011;53.380;10.034;2023-08-08T14:29:48;2.30;;;0.80;;
27576;SDS011;15011;53.380;10.034;2023-08-08T14:34:49;1.58;;;0.60;;
27576;SDS011;15011;53.380;10.034;2023-08-08T14:39:51;5.53;;;1.00;;
27576;SDS011;15011;53.380;10.034;2023-08-08T14:44:51;3.28;;;1.00;;
27576;SDS011;15011;53.380;10.034;2023-08-08T14:49:52;3.85;;;0.65;;
27576;SDS011;15011;53.380;10.034;2023-08-08T14:54:53;2.45;;;0.80;;
27576;SDS011;15011;53.380;10.034;2023-08-08T14:59:54;3.42;;;0.75;;
27576;SDS011;15011;53.380;10.034;2023-08-08T15:04:55;2.50;;;0.80;;
27576;SDS011;15011;53.380;10.034;2023-08-08T15:09:56;4.13;;;1.40;;
27576;SDS011;15011;53.380;10.034;2023-08-08T15:14:57;3.17;;;1.17;;
27576;SDS011;15011;53.380;10.034;2023-08-08T15:19:57;5.28;;;1.00;;
27576;SDS011;15011;53.380;10.034;2023-08-08T15:24:59;2.17;;;0.70;;
27576;SDS011;15011;53.380;10.034;2023-08-08T15:29:59;3.67;;;0.63;;
27576;SDS011;15011;53.380;10.034;2023-08-08T15:35:00;2.60;;;0.65;;
27576;SDS011;15011;53.380;10.034;2023-08-08T15:40:21;5.85;;;1.17;;
27576;SDS011;15011;53.380;10.034;2023-08-08T15:45:22;3.35;;;0.80;;
27576;SDS011;15011;53.380;10.034;2023-08-08T15:50:27;2.95;;;0.90;;
27576;SDS011;15011;53.380;10.034;2023-08-08T15:55:28;3.97;;;1.00;;
27576;SDS011;15011;53.380;10.034;2023-08-08T16:00:29;2.55;;;0.85;;
27576;SDS011;15011;53.380;10.034;2023-08-08T16:05:32;2.33;;;0.80;;
27576;SDS011;15011;53.380;10.034;2023-08-08T16:10:33;2.63;;;0.80;;
27576;SDS011;15011;53.380;10.034;2023-08-08T16:15:34;2.30;;;0.50;;
27576;SDS011;15011;53.380;10.034;2023-08-08T16:20:34;4.20;;;0.60;;
27576;SDS011;15011;53.380;10.034;2023-08-08T16:25:35;3.83;;;1.00;;
27576;SDS011;15011;53.380;10.034;2023-08-08T16:30:37;1.90;;;0.80;;
27576;SDS011;15011;53.380;10.034;2023-08-08T16:35:38;1.92;;;0.98;;
27576;SDS011;15011;53.380;10.034;2023-08-08T16:40:38;1.38;;;0.52;;
27576;SDS011;15011;53.380;10.034;2023-08-08T16:45:59;1.58;;;0.98;;
27576;SDS011;15011;53.380;10.034;2023-08-08T16:50:59;2.50;;;0.90;;
27576;SDS011;15011;53.380;10.034;2023-08-08T16:56:00;2.80;;;1.00;;
27576;SDS011;15011;53.380;10.034;2023-08-08T17:01:06;4.22;;;1.60;;
27576;SDS011;15011;53.380;10.034;2023-08-08T17:06:07;3.58;;;0.90;;
27576;SDS011;15011;53.380;10.034;2023-08-08T17:11:09;2.88;;;0.82;;
27576;SDS011;15011;53.380;10.034;2023-08-08T17:16:11;1.88;;;0.70;;
27576;SDS011;15011;53.380;10.034;2023-08-08T17:21:12;2.45;;;0.80;;
27576;SDS011;15011;53.380;10.034;2023-08-08T17:26:14;3.83;;;1.02;;
27576;SDS011;15011;53.380;10.034;2023-08-08T17:31:17;2.22;;;0.73;;
27576;SDS011;15011;53.380;10.034;2023-08-08T17:36:19;3.50;;;0.95;;
27576;SDS011;15011;53.380;10.034;2023-08-08T17:41:40;2.13;;;1.05;;
27576;SDS011;15011;53.380;10.034;2023-08-08T17:47:01;2.85;;;0.75;;
27576;SDS011;15011;53.380;10.034;2023-08-08T17:52:21;4.03;;;0.80;;
27576;SDS011;15011;53.380;10.034;2023-08-08T17:57:42;1.70;;;0.75;;
27576;SDS011;15011;53.380;10.034;2023-08-08T18:03:02;4.88;;;0.80;;
27576;SDS011;15011;53.380;10.034;2023-08-08T18:08:23;4.15;;;1.00;;
27576;SDS011;15011;53.380;10.034;2023-08-08T18:13:43;1.98;;;0.60;;
27576;SDS011;15011;53.380;10.034;2023-08-08T18:19:04;4.03;;;0.88;;
27576;SDS011;15011;53.380;10.034;2023-08-08T18:24:25;2.97;;;0.82;;
27576;SDS011;15011;53.380;10.034;2023-08-08T18:29:46;3.92;;;0.75;;
27576;SDS011;15011;53.380;10.034;2023-08-08T18:35:07;2.03;;;0.70;;
27576;SDS011;15011;53.380;10.034;2023-08-08T18:40:28;1.52;;;0.70;;
27576;SDS011;15011;53.380;10.034;2023-08-08T18:45:49;4.82;;;0.90;;
27576;SDS011;15011;53.380;10.034;2023-08-08T18:51:10;1.63;;;0.70;;
27576;SDS011;15011;53.380;10.034;2023-08-08T19:01:11;1.45;;;0.60;;
27576;SDS011;15011;53.380;10.034;2023-08-08T19:06:12;7.53;;;0.70;;
27576;SDS011;15011;53.380;10.034;2023-08-08T19:11:16;2.10;;;1.35;;
27576;SDS011;15011;53.380;10.034;2023-08-08T19:16:18;4.13;;;0.70;;
27576;SDS011;15011;53.380;10.034;2023-08-08T19:21:18;1.60;;;0.60;;
27576;SDS011;15011;53.380;10.034;2023-08-08T19:26:19;3.47;;;0.80;;
27576;SDS011;15011;53.380;10.034;2023-08-08T19:36:20;4.33;;;0.97;;
27576;SDS011;15011;53.380;10.034;2023-08-08T19:46:22;3.93;;;1.00;;
27576;SDS011;15011;53.380;10.034;2023-08-08T19:51:22;3.43;;;1.00;;
27576;SDS011;15011;53.380;10.034;2023-08-08T20:06:25;3.03;;;0.73;;
27576;SDS011;15011;53.380;10.034;2023-08-08T20:11:25;3.72;;;1.05;;
27576;SDS011;15011;53.380;10.034;2023-08-08T20:21:27;4.37;;;0.90;;
27576;SDS011;15011;53.380;10.034;2023-08-08T20:41:28;3.72;;;0.93;;
27576;SDS011;15011;53.380;10.034;2023-08-08T20:46:28;2.90;;;1.70;;
27576;SDS011;15011;53.380;10.034;2023-08-08T20:56:30;4.38;;;1.08;;
27576;SDS011;15011;53.380;10.034;2023-08-08T21:01:30;3.47;;;0.93;;
27576;SDS011;15011;53.380;10.034;2023-08-08T21:11:31;4.43;;;1.30;;
27576;SDS011;15011;53.380;10.034;2023-08-08T21:16:31;3.87;;;1.00;;
27576;SDS011;15011;53.380;10.034;2023-08-08T21:21:32;3.27;;;0.90;;
27576;SDS011;15011;53.380;10.034;2023-08-08T21:26:32;2.53;;;0.93;;
27576;SDS011;15011;53.380;10.034;2023-08-08T21:41:34;3.33;;;1.23;;
27576;SDS011;15011;53.380;10.034;2023-08-08T21:46:34;5.45;;;0.93;;
27576;SDS011;15011;53.380;10.034;2023-08-08T21:56:35;2.27;;;0.70;;
27576;SDS011;15011;53.380;10.034;2023-08-08T22:01:36;2.58;;;0.75;;
27576;SDS011;15011;53.380;10.034;2023-08-08T22:06:36;3.65;;;0.82;;
27576;SDS011;15011;53.380;10.034;2023-08-08T22:11:37;3.53;;;0.75;;
27576;SDS011;15011;53.380;10.034;2023-08-08T22:16:37;4.70;;;0.80;;
27576;SDS011;15011;53.380;10.034;2023-08-08T22:21:38;5.07;;;0.70;;
27576;SDS011;15011;53.380;10.034;2023-08-08T22:26:38;2.30;;;0.90;;
27576;SDS011;15011;53.380;10.034;2023-08-08T22:31:39;2.00;;;0.68;;
27576;SDS011;15011;53.380;10.034;2023-08-08T22:36:39;2.50;;;0.73;;
27576;SDS011;15011;53.380;10.034;2023-08-08T22:41:40;1.38;;;0.68;;
27576;SDS011;15011;53.380;10.034;2023-08-08T22:46:40;3.58;;;0.65;;
27576;SDS011;15011;53.380;10.034;2023-08-08T22:51:41;5.97;;;1.10;;
27576;SDS011;15011;53.380;10.034;2023-08-08T22:56:41;2.07;;;0.60;;
27576;SDS011;15011;53.380;10.034;2023-08-08T23:01:42;2.15;;;0.98;;
27576;SDS011;15011;53.380;10.034;2023-08-08T23:06:42;3.83;;;0.90;;
27576;SDS011;15011;53.380;10.034;2023-08-08T23:26:44;1.67;;;0.70;;
27576;SDS011;15011;53.380;10.034;2023-08-08T23:31:45;4.10;;;0.90;;
27576;SDS011;15011;53.380;10.034;2023-08-08T23:36:45;5.43;;;1.47;;
27576;SDS011;15011;53.380;10.034;2023-08-08T23:41:46;3.03;;;0.70;;
27576;SDS011;15011;53.380;10.034;2023-08-08T23:46:47;3.22;;;0.80;;
27576;SDS011;15011;53.380;10.034;2023-08-08T23:51:48;3.17;;;0.68;;
27576;SDS011;15011;53.380;10.034;2023-08-08T23:56:49;4.30;;;1.00;;
